Time;durP1;ratioP1;P1;durP2;ratioP2;P2;SDS_P1;SDS_P2;PMS_P1;PMS_P2;Temp;Humidity;BMP_temperature;BMP_pressure;BME280_temperature;BME280_humidity;BME280_pressure;Samples;Min_cycle;Max_cycle;Signal;HPM_P1;HPM_P2
2021/10/12 00:01:48;;;;;;;;;;;;;;;8.94;85.56;100416.37;1373731;89;20241;-91
2021/10/12 00:04:14;;;;;;;;;;;;;;;8.93;83.99;100406.80;1374093;89;20234;-92
2021/10/12 00:06:39;;;;;;;;;;;;;;;8.94;86.22;100415.05;1374029;89;20234;-91
2021/10/12 00:09:05;;;;;;;;;;;;;;;8.93;85.49;100410.75;1373958;89;20205;-90
2021/10/12 00:11:31;;;;;;;;;;;;;;;8.91;88.06;100405.26;1374175;89;20280;-90
2021/10/12 00:13:57;;;;;;;;;;;;;;;8.92;88.02;100410.88;1374108;90;20777;-89
2021/10/12 00:16:23;;;;;;;;;;;;;;;8.95;87.13;100410.14;1373942;90;20256;-90
2021/10/12 00:18:50;;;;;;;;;;;;;;;8.97;87.34;100410.81;1374320;90;20316;-90
2021/10/12 00:21:16;;;;;;;;;;;;;;;9.01;86.33;100408.27;1374391;89;20334;-90
2021/10/12 00:23:42;;;;;;;;;;;;;;;9.08;86.13;100402.43;1374161;89;20346;-91
2021/10/12 00:26:08;;;;;;;;;;;;;;;9.14;86.16;100396.09;1373883;90;20219;-90
2021/10/12 00:28:33;;;;;;;;;;;;;;;9.20;85.51;100394.70;1373986;90;20242;-91
2021/10/12 00:31:00;;;;;;;;;;;;;;;9.25;84.97;100391.17;1374318;89;20286;-91
2021/10/12 00:33:26;;;;;;;;;;;;;;;9.31;84.55;100391.09;1374315;89;20242;-89
2021/10/12 00:35:52;;;;;;;;;;;;;;;9.36;83.82;100387.55;1372377;90;20320;-90
2021/10/12 00:38:18;;;;;;;;;;;;;;;9.42;84.70;100391.78;1372546;89;20264;-90
2021/10/12 00:40:44;;;;;;;;;;;;;;;9.41;84.45;100390.13;1372797;89;20242;-88
2021/10/12 00:43:10;;;;;;;;;;;;;;;9.40;83.10;100385.79;1372700;89;20293;-89
2021/10/12 00:45:37;;;;;;;;;;;;;;;9.40;83.12;100383.64;1372521;89;20234;-89
2021/10/12 00:48:06;;;;;;;;;;;;;;;9.38;84.15;100381.16;1372753;90;20307;-90
2021/10/12 00:50:33;;;;;;;;;;;;;;;9.35;85.60;100377.48;1372746;89;20331;-90
2021/10/12 00:53:00;;;;;;;;;;;;;;;9.30;84.48;100370.95;1372696;90;20330;-89
2021/10/12 00:55:26;;;;;;;;;;;;;;;9.25;86.82;100372.68;1373024;89;20249;-90
2021/10/12 00:57:52;;;;;;;;;;;;;;;9.21;85.85;100374.78;1374113;89;20242;-89
2021/10/12 01:00:18;;;;;;;;;;;;;;;9.17;87.67;100368.09;1372511;90;20248;-90
2021/10/12 01:02:45;;;;;;;;;;;;;;;9.13;87.86;100367.20;1372640;89;20741;-89
2021/10/12 01:05:11;;;;;;;;;;;;;;;9.10;88.47;100359.57;1372515;90;20256;-89
2021/10/12 01:07:37;;;;;;;;;;;;;;;9.02;89.32;100357.12;1372528;90;20257;-89
2021/10/12 01:10:05;;;;;;;;;;;;;;;9.00;88.56;100353.78;1372521;89;20254;-89
2021/10/12 01:12:31;;;;;;;;;;;;;;;8.97;87.87;100355.37;1372459;89;20257;-89
2021/10/12 01:14:57;;;;;;;;;;;;;;;8.94;88.01;100354.83;1372465;89;20265;-90
2021/10/12 01:17:23;;;;;;;;;;;;;;;8.89;88.00;100351.30;1372440;90;20235;-89
2021/10/12 01:19:49;;;;;;;;;;;;;;;8.84;87.69;100341.64;1372606;89;20293;-91
2021/10/12 01:22:15;;;;;;;;;;;;;;;8.82;87.61;100344.90;1372420;90;20248;-91
2021/10/12 01:24:41;;;;;;;;;;;;;;;8.84;86.17;100349.56;1372411;89;20264;-90
2021/10/12 01:27:07;;;;;;;;;;;;;;;8.88;85.84;100344.34;1372475;89;20342;-90
2021/10/12 01:29:33;;;;;;;;;;;;;;;8.94;86.87;100343.78;1372579;89;20776;-90
2021/10/12 01:31:59;;;;;;;;;;;;;;;8.96;86.00;100340.52;1372487;89;20777;-91
2021/10/12 01:34:25;;;;;;;;;;;;;;;9.02;85.35;100334.69;1373276;90;20294;-90
2021/10/12 01:36:51;;;;;;;;;;;;;;;9.07;85.35;100338.73;1372573;90;20257;-91
2021/10/12 01:39:18;;;;;;;;;;;;;;;9.05;85.99;100334.89;1372397;90;20301;-91
2021/10/12 01:41:44;;;;;;;;;;;;;;;9.04;85.68;100338.02;1372637;89;20288;-91
2021/10/12 01:44:14;;;;;;;;;;;;;;;9.04;85.21;100337.20;1372533;90;20271;-91
2021/10/12 01:46:41;;;;;;;;;;;;;;;9.03;85.03;100333.73;1372532;89;20292;-91
2021/10/12 01:49:07;;;;;;;;;;;;;;;8.99;84.85;100327.05;1372655;89;20287;-91
2021/10/12 01:51:34;;;;;;;;;;;;;;;8.96;84.72;100329.97;1372500;90;20249;-92
2021/10/12 01:54:00;;;;;;;;;;;;;;;8.92;84.33;100333.88;1372498;89;21336;-91
2021/10/12 01:56:27;;;;;;;;;;;;;;;8.87;84.65;100335.26;1372399;90;20279;-91
2021/10/12 01:58:53;;;;;;;;;;;;;;;8.82;84.67;100322.47;1372640;89;20234;-91
2021/10/12 02:01:23;;;;;;;;;;;;;;;8.78;84.88;100325.05;1372576;90;20301;-92
2021/10/12 02:03:49;;;;;;;;;;;;;;;8.74;85.26;100319.68;1372494;90;20234;-91
2021/10/12 02:06:16;;;;;;;;;;;;;;;8.69;85.11;100318.80;1372566;90;20296;-92
2021/10/12 02:08:42;;;;;;;;;;;;;;;8.65;85.48;100319.19;1372708;90;20235;-91
2021/10/12 02:11:08;;;;;;;;;;;;;;;8.62;86.21;100316.84;1372650;90;20263;-90
2021/10/12 02:13:34;;;;;;;;;;;;;;;8.58;85.80;100311.84;1372493;89;20256;-90
2021/10/12 02:16:00;;;;;;;;;;;;;;;8.52;85.48;100308.44;1372688;90;20772;-90
2021/10/12 02:18:25;;;;;;;;;;;;;;;8.49;85.97;100304.75;1372562;89;20234;-93
2021/10/12 02:20:51;;;;;;;;;;;;;;;8.46;86.36;100305.03;1375655;89;20279;-91
2021/10/12 02:23:18;;;;;;;;;;;;;;;8.43;85.86;100300.48;1378077;89;20256;-91
2021/10/12 02:25:44;;;;;;;;;;;;;;;8.40;85.56;100297.66;1378169;89;20741;-92
2021/10/12 02:28:11;;;;;;;;;;;;;;;8.36;85.09;100298.86;1378211;89;20248;-91
2021/10/12 02:30:37;;;;;;;;;;;;;;;8.31;84.99;100296.62;1378171;89;20233;-92
2021/10/12 02:33:03;;;;;;;;;;;;;;;8.30;84.86;100292.81;1378403;89;20249;-91
2021/10/12 02:35:29;;;;;;;;;;;;;;;8.27;85.49;100289.96;1379694;89;20248;-90
2021/10/12 02:37:55;;;;;;;;;;;;;;;8.24;84.74;100288.92;1379892;89;20247;-92
2021/10/12 02:40:21;;;;;;;;;;;;;;;8.22;84.87;100286.06;1380600;89;20248;-91
2021/10/12 02:42:47;;;;;;;;;;;;;;;8.19;84.76;100282.38;1379981;89;20253;-90
2021/10/12 02:45:13;;;;;;;;;;;;;;;8.17;84.87;100284.31;1380005;89;20324;-90
2021/10/12 02:47:39;;;;;;;;;;;;;;;8.18;84.87;100286.00;1380004;89;20264;-92
2021/10/12 02:50:07;;;;;;;;;;;;;;;8.21;84.36;100289.69;1379996;89;20256;-92
2021/10/12 02:52:33;;;;;;;;;;;;;;;8.24;84.16;100285.45;1379902;89;20754;-91
2021/10/12 02:54:59;;;;;;;;;;;;;;;8.25;82.12;100289.25;1379960;89;20234;-90
2021/10/12 02:57:25;;;;;;;;;;;;;;;8.28;82.03;100282.39;1380147;89;21255;-90
2021/10/12 02:59:51;;;;;;;;;;;;;;;8.28;81.90;100278.92;1380576;89;20234;-91
2021/10/12 03:02:17;;;;;;;;;;;;;;;8.33;82.15;100285.95;1380115;89;20323;-93
2021/10/12 03:04:43;;;;;;;;;;;;;;;8.35;81.76;100277.42;1380134;89;20241;-92
2021/10/12 03:07:09;;;;;;;;;;;;;;;8.37;81.36;100278.09;1380256;89;20806;-91
2021/10/12 03:09:35;;;;;;;;;;;;;;;8.37;81.66;100282.05;1361674;90;20255;-91
2021/10/12 03:12:01;;;;;;;;;;;;;;;8.36;81.55;100281.72;1380149;89;20249;-90
2021/10/12 03:14:27;;;;;;;;;;;;;;;8.30;81.25;100281.78;1379917;89;20807;-90
2021/10/12 03:16:52;;;;;;;;;;;;;;;8.27;81.77;100286.00;1380054;89;20308;-92
2021/10/12 03:19:18;;;;;;;;;;;;;;;8.24;82.08;100277.55;1380909;89;20256;-92
2021/10/12 03:21:58;;;;;;;;;;;;;;;8.18;81.89;100278.09;1379961;89;20836;-92
2021/10/12 03:24:18;;;;;;;;;;;;;;;8.09;81.52;100275.78;1379165;89;20293;-92
2021/10/12 03:26:44;;;;;;;;;;;;;;;8.05;81.69;100276.52;1380036;89;20233;-93
2021/10/12 03:29:10;;;;;;;;;;;;;;;8.02;82.09;100278.10;1380541;89;20309;-92
2021/10/12 03:31:36;;;;;;;;;;;;;;;7.95;82.43;100282.27;1380169;89;20226;-91
2021/10/12 03:34:02;;;;;;;;;;;;;;;7.93;82.48;100272.81;1380230;89;20338;-93
2021/10/12 03:36:28;;;;;;;;;;;;;;;7.89;82.26;100273.09;1369859;89;20815;-93
2021/10/12 03:38:54;;;;;;;;;;;;;;;7.87;82.47;100275.50;1367677;90;20266;-92
2021/10/12 03:41:20;;;;;;;;;;;;;;;7.85;83.25;100274.80;1367611;90;20250;-94
2021/10/12 03:43:46;;;;;;;;;;;;;;;7.82;83.93;100272.42;1368005;90;20851;-94
2021/10/12 03:46:15;;;;;;;;;;;;;;;7.80;83.03;100273.06;1367618;90;20242;-91
2021/10/12 03:48:40;;;;;;;;;;;;;;;7.74;83.52;100275.75;1367612;90;20921;-93
2021/10/12 03:51:07;;;;;;;;;;;;;;;7.72;83.30;100272.41;1367387;90;20235;-91
2021/10/12 03:53:37;;;;;;;;;;;;;;;7.69;84.01;100276.14;1367258;90;20376;-90
2021/10/12 03:56:04;;;;;;;;;;;;;;;7.67;83.73;100270.16;1367217;90;20243;-91
2021/10/12 03:58:30;;;;;;;;;;;;;;;7.67;83.73;100272.79;1354350;91;20264;-91
2021/10/12 04:00:55;;;;;;;;;;;;;;;7.67;84.08;100272.79;1367305;90;20385;-90
2021/10/12 04:03:21;;;;;;;;;;;;;;;7.69;84.12;100268.23;1367328;90;20266;-92
2021/10/12 04:05:47;;;;;;;;;;;;;;;7.71;83.53;100272.52;1367658;90;20250;-90
2021/10/12 04:08:14;;;;;;;;;;;;;;;7.75;83.62;100268.67;1367528;90;20303;-91
2021/10/12 04:10:40;;;;;;;;;;;;;;;7.80;83.14;100258.58;1367394;90;20295;-91
2021/10/12 04:13:06;;;;;;;;;;;;;;;7.84;82.98;100265.23;1367361;90;20243;-91
2021/10/12 04:15:33;;;;;;;;;;;;;;;7.89;82.77;100261.72;1367235;90;20317;-91
2021/10/12 04:17:59;;;;;;;;;;;;;;;7.93;82.46;100253.88;1367281;90;20258;-89
2021/10/12 04:20:26;;;;;;;;;;;;;;;7.98;81.69;100253.48;1367292;90;20303;-90
2021/10/12 04:22:53;;;;;;;;;;;;;;;8.00;81.90;100247.12;1366903;90;20343;-90
2021/10/12 04:25:19;;;;;;;;;;;;;;;8.00;81.87;100244.48;1366905;90;20857;-90
2021/10/12 04:27:46;;;;;;;;;;;;;;;7.95;81.77;100249.31;1366956;90;20288;-89
2021/10/12 04:30:12;;;;;;;;;;;;;;;7.91;82.12;100247.45;1367027;90;21125;-90
2021/10/12 04:32:38;;;;;;;;;;;;;;;7.87;81.24;100252.62;1367566;90;20740;-91
2021/10/12 04:35:04;;;;;;;;;;;;;;;7.84;82.00;100250.25;1367773;89;20251;-89
2021/10/12 04:37:30;;;;;;;;;;;;;;;7.80;82.48;100253.30;1367176;90;20357;-90
2021/10/12 04:39:56;;;;;;;;;;;;;;;7.76;82.01;100254.52;1367564;90;20280;-90
2021/10/12 04:42:22;;;;;;;;;;;;;;;7.72;81.39;100247.87;1367374;90;20787;-89
2021/10/12 04:44:53;;;;;;;;;;;;;;;7.67;82.28;100251.72;1367250;90;20265;-90
2021/10/12 04:47:18;;;;;;;;;;;;;;;7.62;82.60;100253.08;1366732;90;20288;-89
2021/10/12 04:49:44;;;;;;;;;;;;;;;7.58;82.97;100254.33;1367312;90;20258;-90
2021/10/12 04:52:10;;;;;;;;;;;;;;;7.52;83.11;100254.37;1367484;90;20257;-90
2021/10/12 04:54:36;;;;;;;;;;;;;;;7.47;83.86;100252.61;1367344;90;20295;-90
2021/10/12 04:57:02;;;;;;;;;;;;;;;7.43;84.19;100251.22;1367341;90;20220;-88
2021/10/12 04:59:28;;;;;;;;;;;;;;;7.40;84.32;100252.80;1367399;90;20310;-90
2021/10/12 05:01:54;;;;;;;;;;;;;;;7.39;83.81;100245.84;1355344;90;20385;-90
2021/10/12 05:04:21;;;;;;;;;;;;;;;7.35;84.54;100248.41;1367166;90;20257;-90
2021/10/12 05:06:47;;;;;;;;;;;;;;;7.33;84.27;100247.20;1354794;90;20250;-90
2021/10/12 05:09:13;;;;;;;;;;;;;;;7.32;84.04;100246.03;1367921;90;20235;-91
2021/10/12 05:11:39;;;;;;;;;;;;;;;7.30;85.90;100245.32;1367668;90;20852;-91
2021/10/12 05:14:04;;;;;;;;;;;;;;;7.30;85.33;100240.05;1367272;90;20288;-89
2021/10/12 05:16:32;;;;;;;;;;;;;;;7.32;84.30;100248.17;1367335;90;20358;-92
2021/10/12 05:18:59;;;;;;;;;;;;;;;7.36;84.37;100244.79;1367679;90;20336;-90
2021/10/12 05:21:27;;;;;;;;;;;;;;;7.39;84.57;100244.53;1366974;90;20250;-91
2021/10/12 05:23:53;;;;;;;;;;;;;;;7.39;84.61;100246.70;1366616;90;20244;-89
2021/10/12 05:26:20;;;;;;;;;;;;;;;7.43;84.14;100242.83;1332428;93;20761;-90
2021/10/12 05:28:46;;;;;;;;;;;;;;;7.46;84.81;100241.25;1349403;92;20252;-91
2021/10/12 05:31:12;;;;;;;;;;;;;;;7.55;83.66;100238.30;1329413;93;20248;-92
2021/10/12 05:33:37;;;;;;;;;;;;;;;7.60;83.84;100242.70;1329533;93;20361;-92
2021/10/12 05:36:04;;;;;;;;;;;;;;;7.63;83.28;100246.38;1346512;91;20291;-92
2021/10/12 05:38:30;;;;;;;;;;;;;;;7.66;83.36;100244.79;1343071;92;20268;-91
2021/10/12 05:40:56;;;;;;;;;;;;;;;7.73;83.14;100246.40;1338599;93;20252;-90
2021/10/12 05:43:22;;;;;;;;;;;;;;;7.76;84.02;100238.72;1338447;92;20245;-89
2021/10/12 05:45:50;;;;;;;;;;;;;;;7.78;83.87;100244.70;1338261;92;20246;-88
2021/10/12 05:48:17;;;;;;;;;;;;;;;7.81;83.77;100244.42;1338489;92;20269;-89
2021/10/12 05:50:45;;;;;;;;;;;;;;;7.81;83.07;100246.57;1338645;92;20892;-88
2021/10/12 05:53:24;;;;;;;;;;;;;;;7.79;83.07;100248.98;1338896;92;20818;-89
2021/10/12 05:58:42;;;;;;;;;;;;;;;7.79;83.11;100251.63;1338933;93;20781;-89
2021/10/12 06:01:04;;;;;;;;;;;;;;;7.76;81.50;100257.16;1338642;91;20239;-91
2021/10/12 06:03:30;;;;;;;;;;;;;;;7.71;82.03;100260.21;1338924;92;20253;-89
2021/10/12 06:05:56;;;;;;;;;;;;;;;7.73;82.05;100264.84;1339021;93;20246;-89
2021/10/12 06:08:22;;;;;;;;;;;;;;;7.73;82.43;100265.33;1338998;93;20373;-85
2021/10/12 06:10:48;;;;;;;;;;;;;;;7.74;82.96;100265.21;1339148;92;20350;-86
2021/10/12 06:13:15;;;;;;;;;;;;;;;7.72;82.50;100264.50;1339142;93;20331;-86
2021/10/12 06:15:42;;;;;;;;;;;;;;;7.73;81.32;100265.33;1339015;92;20252;-85
2021/10/12 06:18:08;;;;;;;;;;;;;;;7.72;81.88;100257.09;1339019;92;20247;-87
2021/10/12 06:20:35;;;;;;;;;;;;;;;7.75;81.98;100258.14;1338500;93;20343;-88
2021/10/12 06:23:01;;;;;;;;;;;;;;;7.84;82.08;100254.69;1354878;91;20259;-88
2021/10/12 06:25:33;;;;;;;;;;;;;;;7.91;81.67;100258.44;1355799;91;20771;-87
2021/10/12 06:28:06;;;;;;;;;;;;;;;8.01;81.11;100259.80;1355751;91;20786;-88
2021/10/12 06:30:34;;;;;;;;;;;;;;;8.08;80.86;100265.70;1355777;91;20260;-88
2021/10/12 06:33:01;;;;;;;;;;;;;;;8.20;80.09;100262.95;1355992;91;20251;-87
2021/10/12 06:35:29;;;;;;;;;;;;;;;8.26;79.73;100265.06;1355876;91;20258;-87
2021/10/12 06:37:58;;;;;;;;;;;;;;;8.29;79.23;100258.20;1376990;91;20263;-89
2021/10/12 06:40:25;;;;;;;;;;;;;;;8.37;79.69;100262.28;1377123;89;20842;-87
2021/10/12 06:42:53;;;;;;;;;;;;;;;8.43;79.39;100261.78;1376943;89;20242;-87
2021/10/12 06:45:22;;;;;;;;;;;;;;;8.49;78.82;100263.87;1376975;89;20881;-87
2021/10/12 06:47:49;;;;;;;;;;;;;;;8.54;78.73;100269.53;1377133;89;20293;-88
2021/10/12 06:50:16;;;;;;;;;;;;;;;8.61;78.50;100270.33;1377391;89;20264;-86
2021/10/12 06:52:44;;;;;;;;;;;;;;;8.67;78.26;100277.69;1377003;89;20338;-88
2021/10/12 06:55:11;;;;;;;;;;;;;;;8.76;78.29;100282.13;1377018;89;20254;-88
2021/10/12 06:57:37;;;;;;;;;;;;;;;8.83;78.42;100279.26;1376796;88;20234;-88
2021/10/12 07:00:05;;;;;;;;;;;;;;;8.88;76.99;100284.95;1377384;89;20412;-88
2021/10/12 07:02:31;;;;;;;;;;;;;;;8.92;77.13;100278.44;1377222;89;20263;-88
2021/10/12 07:04:58;;;;;;;;;;;;;;;8.98;77.19;100281.83;1377051;90;20315;-89
2021/10/12 07:07:24;;;;;;;;;;;;;;;9.06;77.03;100281.60;1377024;89;20263;-89
2021/10/12 07:09:50;;;;;;;;;;;;;;;9.14;76.56;100285.20;1377263;89;20310;-89
2021/10/12 07:12:19;;;;;;;;;;;;;;;9.17;74.45;100276.99;1377042;89;20241;-89
2021/10/12 07:14:45;;;;;;;;;;;;;;;9.22;74.28;100287.14;1377157;89;20242;-89
2021/10/12 07:17:11;;;;;;;;;;;;;;;9.34;74.96;100288.63;1377285;89;20307;-88
2021/10/12 07:19:37;;;;;;;;;;;;;;;9.46;74.34;100288.80;1364140;90;20248;-88
2021/10/12 07:22:03;;;;;;;;;;;;;;;9.54;72.76;100288.59;1377210;89;20850;-88
2021/10/12 07:24:31;;;;;;;;;;;;;;;9.57;72.94;100291.77;1377407;89;20248;-89
2021/10/12 07:27:02;;;;;;;;;;;;;;;9.65;73.13;100288.41;1377683;89;20799;-88
2021/10/12 07:29:29;;;;;;;;;;;;;;;9.75;72.06;100287.04;1377547;89;20241;-89
2021/10/12 07:32:01;;;;;;;;;;;;;;;9.84;71.97;100296.27;1377591;89;20257;-92
2021/10/12 07:34:27;;;;;;;;;;;;;;;9.90;72.04;100293.03;1377132;89;21179;-90
2021/10/12 07:36:53;;;;;;;;;;;;;;;10.02;72.69;100293.67;1378326;89;20248;-93
2021/10/12 07:39:19;;;;;;;;;;;;;;;10.07;71.86;100286.13;1379534;89;20934;-91
2021/10/12 07:41:45;;;;;;;;;;;;;;;10.19;71.10;100291.22;1378864;89;20279;-89
2021/10/12 07:44:11;;;;;;;;;;;;;;;10.18;70.15;100286.39;1378444;89;20234;-88
2021/10/12 07:46:37;;;;;;;;;;;;;;;10.28;71.36;100287.22;1378925;89;20850;-88
2021/10/12 07:49:05;;;;;;;;;;;;;;;10.32;70.45;100293.03;1379079;89;20263;-88
2021/10/12 07:51:31;;;;;;;;;;;;;;;10.35;69.44;100284.30;1379491;89;20285;-90
2021/10/12 07:54:00;;;;;;;;;;;;;;;10.49;70.60;100290.06;1379292;89;20777;-87
2021/10/12 07:56:36;;;;;;;;;;;;;;;10.57;70.30;100287.50;1380300;89;20240;-87
2021/10/12 07:59:05;;;;;;;;;;;;;;;10.71;70.51;100289.62;1376843;89;20873;-88
2021/10/12 08:01:32;;;;;;;;;;;;;;;10.88;70.64;100285.30;1379426;89;20300;-88
2021/10/12 08:04:03;;;;;;;;;;;;;;;11.00;69.69;100291.19;1378920;89;20240;-89
2021/10/12 08:06:29;;;;;;;;;;;;;;;11.13;68.77;100285.48;1379157;89;20325;-88
2021/10/12 08:08:56;;;;;;;;;;;;;;;11.15;66.81;100281.69;1378979;89;20324;-88
2021/10/12 08:11:25;;;;;;;;;;;;;;;11.22;67.24;100278.78;1378873;89;20814;-87
2021/10/12 08:13:53;;;;;;;;;;;;;;;11.28;66.03;100279.47;1378982;89;20241;-88
2021/10/12 08:16:23;;;;;;;;;;;;;;;11.40;67.28;100280.55;1379088;89;20278;-88
2021/10/12 08:18:46;;;;;;;;;;;;;;;11.51;67.83;100277.63;1379725;89;20233;-88
2021/10/12 08:21:16;;;;;;;;;;;;;;;11.60;66.06;100283.30;1378925;89;21154;-88
2021/10/12 08:23:42;;;;;;;;;;;;;;;11.68;65.83;100274.54;1378862;89;20278;-88
2021/10/12 08:26:08;;;;;;;;;;;;;;;11.80;66.44;100273.80;1378899;89;20256;-88
2021/10/12 08:28:34;;;;;;;;;;;;;;;11.85;64.24;100272.33;1379048;89;20272;-88
2021/10/12 08:31:02;;;;;;;;;;;;;;;11.91;63.49;100266.88;1378997;89;20256;-88
2021/10/12 08:33:28;;;;;;;;;;;;;;;12.07;64.90;100258.98;1379594;89;20762;-88
2021/10/12 08:35:54;;;;;;;;;;;;;;;12.28;63.99;100261.19;1379140;89;20309;-88
2021/10/12 08:38:20;;;;;;;;;;;;;;;12.28;60.86;100260.36;1379149;89;20242;-89
2021/10/12 08:40:47;;;;;;;;;;;;;;;12.07;60.64;100258.98;1378864;89;20247;-88
2021/10/12 08:43:14;;;;;;;;;;;;;;;12.27;62.22;100264.02;1378624;89;20241;-89
2021/10/12 08:45:42;;;;;;;;;;;;;;;12.24;62.19;100258.54;1378621;89;20248;-88
2021/10/12 08:48:08;;;;;;;;;;;;;;;12.17;60.96;100251.73;1378665;89;20226;-88
2021/10/12 08:50:36;;;;;;;;;;;;;;;11.91;61.25;100256.27;1378640;89;20799;-89
2021/10/12 08:53:03;;;;;;;;;;;;;;;12.01;61.58;100256.16;1379289;89;20248;-88
2021/10/12 08:55:29;;;;;;;;;;;;;;;11.92;62.38;100260.61;1379241;89;20270;-91
2021/10/12 08:57:55;;;;;;;;;;;;;;;12.10;62.98;100253.86;1377930;89;20295;-88
2021/10/12 09:00:27;;;;;;;;;;;;;;;12.17;61.21;100257.05;1377781;89;20301;-87
2021/10/12 09:05:56;;;;;;;;;;;;;;;12.11;60.28;100251.06;1377691;89;20262;-89
2021/10/12 09:08:39;;;;;;;;;;;;;;;12.26;61.44;100251.76;1377854;89;20278;-89
2021/10/12 09:11:03;;;;;;;;;;;;;;;12.23;59.40;100242.77;1376729;89;20249;-89
2021/10/12 09:13:32;;;;;;;;;;;;;;;12.38;58.07;100246.47;1377663;89;20424;-89
2021/10/12 09:16:07;;;;;;;;;;;;;;;12.30;58.84;100245.13;1358470;91;20248;-88
2021/10/12 09:18:54;;;;;;;;;;;;;;;12.32;58.84;100250.60;1358563;91;20249;-89
2021/10/12 09:21:26;;;;;;;;;;;;;;;12.29;58.27;100251.43;1377764;89;20763;-90
2021/10/12 09:24:08;;;;;;;;;;;;;;;12.33;59.11;100252.75;1361890;89;20302;-91
2021/10/12 09:26:46;;;;;;;;;;;;;;;12.61;58.59;100248.80;1377702;89;20256;-89
2021/10/12 09:29:24;;;;;;;;;;;;;;;13.00;58.15;100246.79;1377320;89;20248;-88
2021/10/12 09:31:53;;;;;;;;;;;;;;;13.28;57.28;100241.14;1373537;90;21242;-88
2021/10/12 09:34:23;;;;;;;;;;;;;;;13.39;55.80;100235.98;1364533;92;20325;-89
2021/10/12 09:36:51;;;;;;;;;;;;;;;13.58;55.27;100233.41;1364422;90;20235;-88
2021/10/12 09:39:33;;;;;;;;;;;;;;;13.85;55.98;100239.63;1353915;91;20905;-89
2021/10/12 09:42:02;;;;;;;;;;;;;;;13.85;55.17;100236.96;1354429;91;20251;-87
2021/10/12 09:44:29;;;;;;;;;;;;;;;13.78;56.04;100238.64;1353531;91;20297;-87
2021/10/12 09:47:07;;;;;;;;;;;;;;;13.94;55.63;100240.41;1353639;91;20282;-89
2021/10/12 09:49:33;;;;;;;;;;;;;;;13.87;54.15;100240.29;1353853;91;20259;-87
2021/10/12 09:52:10;;;;;;;;;;;;;;;13.73;54.52;100235.70;1353677;91;20322;-89
2021/10/12 09:54:56;;;;;;;;;;;;;;;13.77;54.46;100228.51;1353638;91;20336;-88
2021/10/12 09:57:20;;;;;;;;;;;;;;;13.49;54.42;100228.62;1353192;91;20961;-89
2021/10/12 09:59:48;;;;;;;;;;;;;;;13.40;55.49;100228.32;1353676;91;20303;-88
2021/10/12 10:02:18;;;;;;;;;;;;;;;13.20;56.17;100227.34;1354230;91;20296;-87
2021/10/12 10:04:45;;;;;;;;;;;;;;;13.27;57.33;100219.06;1356462;90;20228;-87
2021/10/12 10:07:21;;;;;;;;;;;;;;;13.40;56.99;100213.70;1355980;90;20806;-87
2021/10/12 10:09:50;;;;;;;;;;;;;;;13.35;56.56;100208.06;1356319;90;20340;-87
2021/10/12 10:12:17;;;;;;;;;;;;;;;13.27;56.29;100207.61;1356514;90;20341;-87
